Time;durP1;ratioP1;P1;durP2;ratioP2;P2;SDS_P1;SDS_P2;PMS_P1;PMS_P2;Temp;Humidity;BMP_temperature;BMP_pressure;BME280_temperature;BME280_humidity;BME280_pressure;Samples;Min_cycle;Max_cycle;Signal;HPM_P1;HPM_P2
2023/07/13 00:01:46;;;;;;;10.60;7.10;;;;;;;21.25;70.84;96156.44;5008222;28;20435;-73
2023/07/13 00:04:12;;;;;;;8.50;7.00;;;;;;;21.26;70.78;96158.13;5008671;28;20414;-72
2023/07/13 00:06:37;;;;;;;7.93;7.13;;;;;;;21.24;71.22;96156.59;5008324;28;20742;-73
2023/07/13 00:09:03;;;;;;;12.80;9.23;;;;;;;21.20;71.16;96163.19;5008009;28;20180;-72
2023/07/13 00:11:28;;;;;;;10.97;7.47;;;;;;;21.20;71.44;96177.38;5008493;28;20203;-71
2023/07/13 00:13:53;;;;;;;11.70;6.80;;;;;;;21.22;71.37;96178.06;5007552;28;21076;-73
2023/07/13 00:16:19;;;;;;;14.37;7.20;;;;;;;21.16;71.97;96181.28;5024471;28;20210;-72
2023/07/13 00:18:46;;;;;;;16.40;7.70;;;;;;;21.25;71.71;96180.44;5024561;28;20188;-71
2023/07/13 00:21:12;;;;;;;10.23;6.50;;;;;;;21.10;72.04;96189.84;5009401;28;20176;-72
2023/07/13 00:23:41;;;;;;;10.93;7.00;;;;;;;21.11;72.28;96191.53;5027505;28;21194;-71
2023/07/13 00:26:08;;;;;;;12.03;7.57;;;;;;;21.04;72.92;96204.56;5025729;28;20835;-71
2023/07/13 00:28:35;;;;;;;12.07;7.60;;;;;;;21.11;72.80;96194.19;5027625;28;20783;-71
2023/07/13 00:31:01;;;;;;;19.03;8.60;;;;;;;21.13;72.87;96190.41;5025030;28;20447;-71
2023/07/13 00:33:29;;;;;;;11.27;7.60;;;;;;;21.21;72.41;96183.53;5032519;28;21017;-71
2023/07/13 00:35:56;;;;;;;8.90;6.53;;;;;;;21.33;71.73;96166.41;5027462;28;20896;-72
2023/07/13 00:38:22;;;;;;;13.40;8.43;;;;;;;21.60;69.61;96164.91;5026302;28;20477;-72
2023/07/13 00:40:48;;;;;;;8.33;5.63;;;;;;;21.39;69.28;96173.88;5027138;28;20530;-70
2023/07/13 00:43:19;;;;;;;5.80;4.70;;;;;;;21.46;68.91;96169.69;5027193;28;21000;-72
2023/07/13 00:45:45;;;;;;;7.33;4.40;;;;;;;21.35;68.71;96169.78;5027416;28;20704;-72
2023/07/13 00:48:13;;;;;;;7.00;5.13;;;;;;;21.35;68.55;96172.44;5027396;28;20421;-71
2023/07/13 00:50:40;;;;;;;5.50;4.83;;;;;;;21.35;68.25;96165.31;5026991;28;20270;-72
2023/07/13 00:53:06;;;;;;;5.43;4.73;;;;;;;21.25;68.13;96163.59;5027028;28;20465;-72
2023/07/13 00:55:31;;;;;;;7.73;4.60;;;;;;;21.08;68.07;96165.13;5027211;28;20414;-71
2023/07/13 00:57:57;;;;;;;5.83;3.90;;;;;;;21.07;68.05;96168.75;5027108;28;20178;-71
2023/07/13 01:00:25;;;;;;;5.10;3.83;;;;;;;21.10;67.66;96172.00;5026771;28;20271;-71
2023/07/13 01:02:51;;;;;;;13.07;4.50;;;;;;;21.06;67.30;96151.09;5026900;28;20484;-72
2023/07/13 01:05:20;;;;;;;9.20;4.23;;;;;;;20.99;67.62;96161.47;5026884;28;21031;-71
2023/07/13 01:07:48;;;;;;;5.53;3.37;;;;;;;21.06;67.39;96145.75;5026678;28;20210;-71
2023/07/13 01:10:14;;;;;;;4.57;3.60;;;;;;;21.06;66.94;96151.09;5026635;28;20418;-72
2023/07/13 01:12:40;;;;;;;5.73;3.50;;;;;;;21.02;66.57;96155.00;5026865;28;20457;-72
2023/07/13 01:15:26;;;;;;;5.87;3.10;;;;;;;21.02;66.30;96144.31;5008658;28;20422;-72
2023/07/13 01:17:51;;;;;;;16.70;3.30;;;;;;;20.76;66.14;96152.84;5026552;28;20414;-72
2023/07/13 01:20:17;;;;;;;5.33;3.30;;;;;;;20.87;66.48;96151.88;5026271;28;20472;-72
2023/07/13 01:22:42;;;;;;;5.00;3.40;;;;;;;20.90;66.33;96160.44;5026527;28;20187;-73
2023/07/13 01:25:08;;;;;;;4.10;3.10;;;;;;;20.88;66.14;96161.56;5026488;28;20183;-72
2023/07/13 01:27:34;;;;;;;8.30;3.30;;;;;;;20.88;66.79;96166.91;5026470;28;20196;-71
2023/07/13 01:30:03;;;;;;;8.13;3.33;;;;;;;20.88;66.64;96167.78;5026222;28;20682;-73
2023/07/13 01:32:31;;;;;;;5.90;3.40;;;;;;;20.85;66.84;96175.19;5026319;28;20199;-73
2023/07/13 01:34:56;;;;;;;5.70;3.20;;;;;;;20.64;67.28;96173.44;5026761;28;20445;-72
2023/07/13 01:37:23;;;;;;;7.90;3.53;;;;;;;20.64;67.61;96168.09;5026967;28;20411;-72
2023/07/13 01:39:49;;;;;;;7.73;3.50;;;;;;;20.73;67.44;96177.13;5026375;28;20207;-72
2023/07/13 01:42:14;;;;;;;5.83;3.30;;;;;;;20.74;67.37;96178.81;5026911;28;20982;-72
2023/07/13 01:44:40;;;;;;;6.40;3.33;;;;;;;20.67;66.99;96181.19;5012682;28;20263;-72
2023/07/13 01:47:06;;;;;;;9.90;4.63;;;;;;;20.65;67.34;96187.63;5029695;28;20244;-72
2023/07/13 01:49:31;;;;;;;5.37;3.40;;;;;;;20.44;67.28;96187.66;5046236;28;20209;-73
2023/07/13 01:51:57;;;;;;;8.07;2.97;;;;;;;20.40;67.16;96183.53;5046662;28;20209;-71
2023/07/13 01:54:22;;;;;;;7.70;3.10;;;;;;;20.42;66.66;96193.09;5046378;28;20179;-72
2023/07/13 01:56:48;;;;;;;5.97;2.80;;;;;;;20.34;66.66;96194.72;5045880;28;20195;-72
2023/07/13 01:59:13;;;;;;;8.30;3.10;;;;;;;20.45;66.75;96198.16;5045888;28;20166;-72
2023/07/13 02:01:38;;;;;;;5.10;3.20;;;;;;;20.44;66.68;96207.13;5046005;28;20194;-72
2023/07/13 02:04:04;;;;;;;5.27;2.70;;;;;;;20.44;67.51;96196.47;5046261;28;20217;-72
2023/07/13 02:06:30;;;;;;;8.13;4.00;;;;;;;20.55;66.90;96195.56;5046309;28;20216;-72
2023/07/13 02:08:55;;;;;;;5.47;3.30;;;;;;;20.38;68.01;96190.81;5045784;28;20247;-72
2023/07/13 02:11:21;;;;;;;3.63;3.13;;;;;;;20.33;68.37;96188.56;5046063;28;20171;-72
2023/07/13 02:13:46;;;;;;;10.50;3.50;;;;;;;20.37;68.00;96190.00;5045643;28;20187;-71
2023/07/13 02:16:12;;;;;;;9.63;3.83;;;;;;;20.51;67.50;96186.13;5046003;28;20279;-71
2023/07/13 02:18:37;;;;;;;3.93;2.77;;;;;;;20.49;67.85;96196.06;5046148;28;20174;-72
2023/07/13 02:21:03;;;;;;;5.67;3.50;;;;;;;20.34;68.33;96194.72;5046500;28;20632;-72
2023/07/13 02:23:28;;;;;;;10.90;4.60;;;;;;;20.39;67.91;96200.53;5046482;28;20194;-72
2023/07/13 02:25:58;;;;;;;4.50;3.30;;;;;;;20.36;67.56;96192.78;5028828;28;20206;-73
2023/07/13 02:28:24;;;;;;;4.90;2.90;;;;;;;20.39;67.00;96188.03;5046539;28;20702;-72
2023/07/13 02:30:49;;;;;;;6.17;2.90;;;;;;;20.37;66.82;96199.81;5045650;28;20421;-72
2023/07/13 02:33:15;;;;;;;4.90;2.87;;;;;;;20.40;65.98;96197.72;5045899;28;20199;-73
2023/07/13 02:35:40;;;;;;;6.70;3.00;;;;;;;20.33;65.92;96193.06;5046384;28;20225;-72
2023/07/13 02:38:06;;;;;;;3.40;2.70;;;;;;;20.23;66.40;96195.66;5046155;28;20174;-71
2023/07/13 02:40:35;;;;;;;4.83;2.80;;;;;;;20.28;66.02;96198.78;5045336;28;20191;-72
2023/07/13 02:43:02;;;;;;;7.03;3.07;;;;;;;20.25;65.81;96199.88;5045617;28;20727;-73
2023/07/13 02:45:27;;;;;;;10.57;3.50;;;;;;;20.32;65.07;96200.22;5047045;28;20439;-72
2023/07/13 02:47:53;;;;;;;4.93;2.77;;;;;;;20.33;65.34;96190.38;5039963;28;20406;-72
2023/07/13 02:50:18;;;;;;;4.80;2.40;;;;;;;20.44;65.22;96192.97;5029175;28;20199;-72
2023/07/13 02:52:44;;;;;;;4.50;3.20;;;;;;;20.36;65.10;96180.28;5029246;28;20669;-72
2023/07/13 02:55:09;;;;;;;11.90;4.53;;;;;;;20.30;65.34;96168.34;5029039;28;20575;-72
2023/07/13 02:57:35;;;;;;;17.57;3.77;;;;;;;20.48;65.27;96173.91;5028982;28;20176;-72
2023/07/13 03:00:05;;;;;;;29.57;4.77;;;;;;;20.43;65.18;96170.81;5028905;28;20179;-71
2023/07/13 03:02:30;;;;;;;4.57;2.50;;;;;;;20.27;65.69;96171.28;5029181;28;20253;-71
2023/07/13 03:04:56;;;;;;;5.77;3.03;;;;;;;20.17;64.58;96172.19;5029306;28;20437;-71
2023/07/13 03:07:21;;;;;;;6.00;3.00;;;;;;;20.26;65.18;96172.25;5029199;28;20248;-71
2023/07/13 03:09:46;;;;;;;9.43;2.93;;;;;;;20.13;64.33;96176.13;5028716;28;20898;-71
2023/07/13 03:12:12;;;;;;;6.43;3.20;;;;;;;19.48;66.93;96192.16;5028938;28;20318;-72
2023/07/13 03:14:37;;;;;;;6.33;3.33;;;;;;;19.35;67.22;96189.69;5011156;28;20664;-72
2023/07/13 03:17:03;;;;;;;10.90;3.10;;;;;;;19.35;67.68;96197.66;5011457;28;20258;-72
2023/07/13 03:19:28;;;;;;;3.93;2.37;;;;;;;19.03;68.93;96201.13;5028473;28;20214;-72
2023/07/13 03:21:53;;;;;;;5.33;2.57;;;;;;;19.01;68.28;96208.38;5028783;28;20202;-71
2023/07/13 03:24:20;;;;;;;18.10;4.30;;;;;;;18.97;69.18;96214.09;5028840;28;20178;-71
2023/07/13 03:26:45;;;;;;;7.30;2.87;;;;;;;19.17;68.42;96215.13;5028775;28;20523;-71
2023/07/13 03:29:11;;;;;;;3.60;2.70;;;;;;;19.04;68.21;96225.94;5029150;28;20417;-71
2023/07/13 03:31:37;;;;;;;8.53;2.57;;;;;;;19.09;66.98;96222.91;5028654;28;20223;-71
2023/07/13 03:34:03;;;;;;;9.17;3.17;;;;;;;19.26;67.50;96219.69;5028640;28;20207;-71
2023/07/13 03:36:29;;;;;;;32.80;5.23;;;;;;;19.06;68.11;96226.63;5028508;28;20200;-72
2023/07/13 03:38:57;;;;;;;25.03;4.83;;;;;;;19.34;65.45;96222.56;5028384;28;20422;-70
2023/07/13 03:41:24;;;;;;;26.57;4.70;;;;;;;19.30;66.05;96228.25;5028450;28;20426;-70
2023/07/13 03:43:49;;;;;;;13.60;3.20;;;;;;;19.43;66.56;96219.16;5028456;28;20777;-70
2023/07/13 03:46:16;;;;;;;8.77;2.40;;;;;;;19.52;66.88;96222.03;5028317;28;20407;-70
2023/07/13 03:48:44;;;;;;;17.53;4.70;;;;;;;19.64;65.74;96229.00;5044339;28;20540;-70
2023/07/13 03:51:14;;;;;;;15.17;4.00;;;;;;;19.65;65.00;96234.22;5037567;28;20420;-70
2023/07/13 03:53:41;;;;;;;24.83;4.23;;;;;;;19.69;64.92;96236.66;5007976;28;20538;-70
2023/07/13 03:56:07;;;;;;;8.10;2.70;;;;;;;19.57;64.30;96241.97;5007462;28;20427;-70
2023/07/13 03:58:40;;;;;;;18.20;3.40;;;;;;;19.54;64.36;96252.03;5007962;28;20434;-70
2023/07/13 04:01:08;;;;;;;30.83;4.30;;;;;;;19.58;63.60;96242.81;5008074;28;20422;-70
2023/07/13 04:03:34;;;;;;;8.87;3.60;;;;;;;19.63;63.18;96243.28;5008629;28;20528;-70
2023/07/13 04:06:00;;;;;;;5.77;2.67;;;;;;;19.11;64.40;96255.50;5008594;28;20423;-70
2023/07/13 04:08:30;;;;;;;3.53;2.73;;;;;;;19.07;64.50;96260.25;5008228;28;20509;-70
2023/07/13 04:10:57;;;;;;;3.43;2.70;;;;;;;18.87;65.19;96256.50;5009131;28;20434;-70
2023/07/13 04:13:23;;;;;;;6.53;2.50;;;;;;;18.81;65.66;96263.16;5024183;28;20581;-70
2023/07/13 04:15:48;;;;;;;6.73;2.73;;;;;;;18.47;65.81;96258.78;5026721;28;20587;-70
2023/07/13 04:18:14;;;;;;;7.90;3.33;;;;;;;19.00;64.96;96264.38;5027920;28;20438;-69
2023/07/13 04:20:39;;;;;;;22.07;4.07;;;;;;;19.27;64.11;96263.13;5027582;28;20180;-70
2023/07/13 04:23:04;;;;;;;6.27;3.80;;;;;;;19.43;64.34;96260.91;5025765;28;20202;-70
2023/07/13 04:25:30;;;;;;;4.77;2.67;;;;;;;19.48;63.41;96271.16;5024864;28;20235;-70
2023/07/13 04:27:55;;;;;;;5.23;3.33;;;;;;;19.43;63.51;96279.53;5024591;28;20568;-71
2023/07/13 04:30:22;;;;;;;7.50;3.00;;;;;;;19.59;62.40;96266.66;5024487;28;20228;-69
2023/07/13 04:32:48;;;;;;;13.83;3.07;;;;;;;19.73;62.73;96275.38;5024443;28;20234;-70
2023/07/13 04:35:14;;;;;;;18.07;3.90;;;;;;;19.90;62.23;96277.47;5024836;28;20963;-70
2023/07/13 04:37:40;;;;;;;8.57;3.57;;;;;;;19.81;60.58;96275.56;5024596;28;20218;-70
2023/07/13 04:40:06;;;;;;;10.30;2.70;;;;;;;19.97;60.29;96283.97;5023966;28;20222;-70
2023/07/13 04:42:31;;;;;;;9.57;3.70;;;;;;;19.82;60.79;96277.28;5024534;28;20298;-70
2023/07/13 04:44:57;;;;;;;8.47;3.10;;;;;;;19.79;60.43;96288.16;5024731;28;20425;-70
2023/07/13 04:47:23;;;;;;;16.30;4.87;;;;;;;19.84;60.13;96289.47;5029809;28;20405;-71
2023/07/13 04:49:48;;;;;;;12.83;3.27;;;;;;;19.84;60.75;96283.28;5044184;28;20240;-70
2023/07/13 04:52:13;;;;;;;11.07;3.30;;;;;;;19.80;59.49;96287.19;5044209;28;20233;-72
2023/07/13 04:54:39;;;;;;;20.63;4.20;;;;;;;19.76;59.45;96289.25;5044632;28;20179;-72
2023/07/13 04:57:08;;;;;;;13.80;3.77;;;;;;;19.86;60.13;96284.00;5042303;28;20241;-71
2023/07/13 04:59:33;;;;;;;11.33;3.40;;;;;;;19.73;60.32;96302.81;5020603;28;20546;-73
2023/07/13 05:01:59;;;;;;;26.07;5.63;;;;;;;19.68;60.11;96299.72;5024012;28;20442;-71
2023/07/13 05:04:24;;;;;;;20.30;4.63;;;;;;;19.77;60.24;96300.75;5023661;28;20182;-73
2023/07/13 05:06:50;;;;;;;3.37;2.40;;;;;;;19.50;60.41;96298.50;5023312;28;20692;-71
2023/07/13 05:09:15;;;;;;;5.00;2.33;;;;;;;19.49;61.68;96300.34;5023647;28;20517;-69
2023/07/13 05:11:41;;;;;;;15.90;3.50;;;;;;;19.61;61.44;96307.31;5024227;28;20282;-71
2023/07/13 05:14:06;;;;;;;12.27;4.03;;;;;;;19.55;62.61;96310.47;5021616;28;20747;-71
2023/07/13 05:16:32;;;;;;;12.43;3.30;;;;;;;19.61;63.20;96309.97;5022642;28;20187;-71
2023/07/13 05:18:57;;;;;;;13.23;3.93;;;;;;;19.78;63.09;96302.44;5023608;28;20286;-72
2023/07/13 05:21:23;;;;;;;7.43;3.20;;;;;;;19.77;63.35;96306.06;5023621;28;20789;-72
2023/07/13 05:23:48;;;;;;;22.60;5.10;;;;;;;19.73;63.91;96317.97;5023876;28;20664;-72
2023/07/13 05:26:14;;;;;;;7.10;4.30;;;;;;;19.71;64.13;96312.75;5023972;28;20185;-74
2023/07/13 05:28:39;;;;;;;21.00;5.20;;;;;;;19.99;63.63;96311.31;5021658;28;20637;-73
2023/07/13 05:31:07;;;;;;;12.90;5.43;;;;;;;19.81;64.40;96320.84;5018115;28;20209;-72
2023/07/13 05:33:33;;;;;;;49.70;7.73;;;;;;;19.82;64.45;96326.03;5025017;28;20298;-72
2023/07/13 05:36:00;;;;;;;17.50;6.23;;;;;;;19.80;64.47;96325.31;5025570;28;20541;-73
2023/07/13 05:38:26;;;;;;;21.63;5.63;;;;;;;19.69;64.45;96330.66;5024014;28;20176;-73
2023/07/13 05:40:53;;;;;;;9.47;5.23;;;;;;;19.64;64.95;96323.03;5023687;28;20480;-72
2023/07/13 05:43:19;;;;;;;12.70;4.70;;;;;;;19.80;64.55;96329.81;5025413;28;20422;-72
2023/07/13 05:45:44;;;;;;;15.80;5.23;;;;;;;19.68;64.27;96336.97;5023536;28;21424;-72
2023/07/13 05:48:10;;;;;;;37.27;8.20;;;;;;;19.85;63.51;96324.94;5035389;28;20300;-73
2023/07/13 05:50:35;;;;;;;20.53;7.07;;;;;;;20.07;62.72;96334.66;5043351;28;20175;-72
2023/07/13 05:53:00;;;;;;;26.37;6.90;;;;;;;20.08;62.94;96326.53;5043042;28;20205;-73
2023/07/13 05:55:26;;;;;;;17.90;6.90;;;;;;;20.05;62.09;96326.78;5043434;28;20559;-72
2023/07/13 05:57:51;;;;;;;31.20;6.80;;;;;;;20.24;61.42;96335.91;5043936;28;20175;-72
2023/07/13 06:00:17;;;;;;;16.70;5.23;;;;;;;20.21;61.27;96334.34;5043453;28;20528;-72
2023/07/13 06:02:42;;;;;;;11.67;5.67;;;;;;;20.38;61.21;96342.75;5043845;28;20214;-73
2023/07/13 06:05:08;;;;;;;11.73;6.30;;;;;;;20.35;60.65;96343.84;5043918;28;20223;-72
2023/07/13 06:07:33;;;;;;;19.03;5.27;;;;;;;20.37;60.83;96352.56;5044695;28;20170;-71
2023/07/13 06:09:59;;;;;;;15.63;5.83;;;;;;;20.44;59.87;96348.41;5045606;28;20556;-70
2023/07/13 06:12:25;;;;;;;43.20;6.20;;;;;;;20.38;59.76;96354.25;5026545;28;20203;-70
2023/07/13 06:14:50;;;;;;;13.13;3.93;;;;;;;20.24;58.94;96346.56;5008402;28;20183;-72
2023/07/13 06:17:16;;;;;;;12.60;3.77;;;;;;;20.27;57.79;96349.00;5025582;28;20949;-71
2023/07/13 06:19:41;;;;;;;16.87;4.07;;;;;;;20.35;57.88;96348.34;5025395;28;20191;-71
2023/07/13 06:22:07;;;;;;;12.03;4.57;;;;;;;20.47;57.27;96348.13;5012212;28;20297;-72
2023/07/13 06:24:32;;;;;;;16.03;3.50;;;;;;;20.45;56.45;96352.75;5030355;28;20183;-71
2023/07/13 06:26:57;;;;;;;19.03;4.00;;;;;;;20.61;56.20;96364.84;5030302;28;20176;-69
2023/07/13 06:29:23;;;;;;;8.97;3.70;;;;;;;20.80;56.08;96361.44;5029628;28;20183;-71
2023/07/13 06:31:48;;;;;;;9.60;3.17;;;;;;;20.69;55.37;96362.34;5026527;28;20622;-70
2023/07/13 06:34:13;;;;;;;12.30;3.30;;;;;;;20.67;55.57;96357.16;5030745;28;20238;-70
2023/07/13 06:36:39;;;;;;;9.93;3.60;;;;;;;20.75;54.09;96361.00;5028482;28;20927;-70
2023/07/13 06:39:06;;;;;;;13.07;3.27;;;;;;;20.62;54.41;96363.84;5029589;28;20637;-70
2023/07/13 06:41:32;;;;;;;10.73;4.33;;;;;;;20.32;55.55;96370.78;5029448;28;20211;-71
2023/07/13 06:43:58;;;;;;;21.80;4.10;;;;;;;20.47;56.04;96372.13;5028286;28;20441;-70
2023/07/13 06:46:24;;;;;;;8.17;3.40;;;;;;;20.54;56.08;96375.13;5020954;28;20516;-69
2023/07/13 06:48:49;;;;;;;19.30;5.50;;;;;;;20.68;56.21;96369.50;5046186;28;20715;-73
2023/07/13 06:51:15;;;;;;;7.20;3.20;;;;;;;20.87;55.34;96366.09;5049260;28;20221;-70
2023/07/13 06:53:42;;;;;;;8.77;2.90;;;;;;;21.17;53.52;96372.47;5046779;28;20202;-72
2023/07/13 06:56:08;;;;;;;17.80;4.00;;;;;;;21.06;53.29;96378.72;5028913;28;20194;-71
2023/07/13 06:58:34;;;;;;;11.33;2.80;;;;;;;21.01;53.50;96372.09;5028983;28;20432;-71
2023/07/13 07:00:59;;;;;;;4.97;2.97;;;;;;;20.94;53.25;96379.78;5028653;28;20194;-70
2023/07/13 07:03:25;;;;;;;7.07;2.30;;;;;;;20.86;54.71;96377.78;5027988;28;20453;-71
2023/07/13 07:05:50;;;;;;;9.33;2.90;;;;;;;20.91;54.79;96385.38;5027940;28;20184;-71
2023/07/13 07:08:15;;;;;;;25.13;3.90;;;;;;;20.83;54.05;96386.00;5020640;28;20167;-72
2023/07/13 07:10:41;;;;;;;18.73;3.40;;;;;;;20.85;54.19;96388.56;5019887;28;20206;-71
2023/07/13 07:13:07;;;;;;;9.33;3.00;;;;;;;21.00;54.21;96387.25;5028973;28;20235;-70
2023/07/13 07:15:34;;;;;;;6.47;2.43;;;;;;;21.01;54.08;96380.94;5028859;28;20824;-70
2023/07/13 07:18:00;;;;;;;11.30;2.90;;;;;;;21.12;54.27;96383.53;5027987;28;20184;-71
2023/07/13 07:20:26;;;;;;;17.40;3.63;;;;;;;21.21;54.19;96381.03;5025012;28;20437;-69
2023/07/13 07:22:52;;;;;;;33.30;6.40;;;;;;;21.26;53.91;96390.34;5021333;28;20192;-69
2023/07/13 07:25:17;;;;;;;19.23;4.53;;;;;;;21.15;52.23;96390.41;5027128;28;20965;-71
2023/07/13 07:27:43;;;;;;;10.47;2.93;;;;;;;21.02;51.63;96387.94;5017707;28;20195;-71
2023/07/13 07:30:09;;;;;;;11.87;2.87;;;;;;;21.26;51.34;96377.00;5017773;28;20817;-71
2023/07/13 07:32:34;;;;;;;16.27;3.13;;;;;;;21.45;49.12;96376.25;5027474;28;20734;-70
2023/07/13 07:35:00;;;;;;;13.83;3.03;;;;;;;21.57;47.83;96379.66;5028139;28;20199;-70
2023/07/13 07:37:25;;;;;;;8.40;2.37;;;;;;;21.68;47.71;96384.03;5028135;28;20186;-71
2023/07/13 07:39:51;;;;;;;4.67;2.13;;;;;;;21.92;46.45;96383.66;5028871;28;20167;-71
2023/07/13 07:42:16;;;;;;;27.80;4.33;;;;;;;21.86;46.55;96386.91;5028795;28;20222;-70
2023/07/13 07:44:42;;;;;;;14.80;3.03;;;;;;;22.05;47.79;96394.13;5028279;28;20222;-70
2023/07/13 07:47:08;;;;;;;15.50;3.27;;;;;;;22.13;46.46;96392.41;5028090;28;20171;-71
2023/07/13 07:49:35;;;;;;;16.83;3.37;;;;;;;22.27;46.67;96399.22;5028377;28;20208;-70
2023/07/13 07:52:00;;;;;;;4.23;2.13;;;;;;;22.14;46.10;96388.78;5027803;28;21109;-69
2023/07/13 07:54:25;;;;;;;21.30;3.10;;;;;;;22.17;46.34;96393.00;5021781;28;20453;-71
2023/07/13 07:56:51;;;;;;;7.00;2.77;;;;;;;22.21;46.26;96401.63;5018723;28;20245;-70
2023/07/13 07:59:16;;;;;;;5.83;2.13;;;;;;;22.08;46.85;96396.50;5027635;28;20220;-70
2023/07/13 08:01:43;;;;;;;8.90;2.80;;;;;;;22.14;46.57;96394.13;5027553;28;20218;-69
2023/07/13 08:04:09;;;;;;;5.00;2.23;;;;;;;22.03;47.12;96407.59;5027585;28;20707;-70
2023/07/13 08:06:34;;;;;;;8.10;2.70;;;;;;;22.13;48.04;96408.44;5024829;28;20475;-71
2023/07/13 08:09:01;;;;;;;46.40;6.67;;;;;;;22.41;47.12;96408.66;5027184;28;20351;-71
2023/07/13 08:11:26;;;;;;;16.50;4.27;;;;;;;22.06;47.12;96407.31;5018882;28;20630;-71
2023/07/13 08:13:52;;;;;;;11.53;3.33;;;;;;;22.06;47.62;96411.81;5028124;28;20450;-70
2023/07/13 08:16:17;;;;;;;15.97;4.07;;;;;;;22.49;46.67;96411.50;5026982;28;20187;-70
2023/07/13 08:18:43;;;;;;;3.97;2.67;;;;;;;22.30;46.56;96411.47;5019521;28;20172;-71
2023/07/13 08:21:09;;;;;;;4.23;2.50;;;;;;;22.38;47.42;96412.44;5027014;28;20871;-69
2023/07/13 08:23:35;;;;;;;5.50;3.07;;;;;;;22.54;46.60;96405.72;5019049;28;20204;-71
2023/07/13 08:26:01;;;;;;;3.60;2.23;;;;;;;22.59;45.62;96401.63;5027969;28;20238;-72
2023/07/13 08:28:27;;;;;;;21.77;3.60;;;;;;;22.39;46.59;96402.59;5027465;28;20507;-72
2023/07/13 08:30:53;;;;;;;7.10;3.00;;;;;;;22.39;47.02;96413.28;5026771;28;20853;-71
2023/07/13 08:33:20;;;;;;;5.33;2.27;;;;;;;22.35;47.62;96420.78;5026963;28;20578;-70
2023/07/13 08:35:47;;;;;;;6.60;2.80;;;;;;;22.31;47.10;96414.00;5007190;28;20263;-71
2023/07/13 08:38:13;;;;;;;16.40;3.97;;;;;;;22.44;46.95;96418.22;5014073;28;20434;-71
2023/07/13 08:40:39;;;;;;;3.40;2.50;;;;;;;22.28;47.56;96419.63;5026187;28;20430;-70
2023/07/13 08:43:04;;;;;;;8.00;2.70;;;;;;;22.21;47.65;96412.31;5024756;28;20821;-70
2023/07/13 08:45:42;;;;;;;10.63;3.27;;;;;;;22.18;47.45;96416.06;5027381;28;20187;-71
2023/07/13 08:48:15;;;;;;;3.53;2.73;;;;;;;22.08;48.00;96418.72;5026420;28;20198;-69
2023/07/13 08:51:00;;;;;;;6.77;2.80;;;;;;;22.02;47.89;96416.63;5025608;28;20455;-70
2023/07/13 08:53:34;;;;;;;4.97;2.63;;;;;;;22.20;46.97;96419.44;5026662;28;20457;-70
2023/07/13 08:56:00;;;;;;;6.17;2.90;;;;;;;22.17;47.62;96422.41;5026916;28;21001;-71
2023/07/13 08:58:30;;;;;;;4.83;2.90;;;;;;;22.15;47.52;96411.84;5027046;28;20493;-72
2023/07/13 09:01:10;;;;;;;4.90;3.23;;;;;;;22.27;47.38;96422.44;5026684;28;20507;-71
2023/07/13 09:03:43;;;;;;;3.97;2.83;;;;;;;22.30;47.59;96419.47;5026772;28;20476;-71
2023/07/13 09:06:13;;;;;;;4.67;2.83;;;;;;;22.73;46.46;96420.91;5023240;28;20845;-69
2023/07/13 09:09:00;;;;;;;6.00;2.87;;;;;;;23.16;45.09;96415.06;5026682;28;20416;-70
2023/07/13 09:11:45;;;;;;;8.57;2.80;;;;;;;23.31;45.00;96422.66;5024994;28;20828;-71
2023/07/13 09:14:30;;;;;;;8.63;2.80;;;;;;;22.89;45.83;96414.94;5022519;28;20467;-71
2023/07/13 09:16:56;;;;;;;10.23;2.93;;;;;;;22.87;45.89;96416.94;5025644;28;20422;-68
2023/07/13 09:19:28;;;;;;;9.50;3.13;;;;;;;22.96;45.62;96411.59;5026050;28;20903;-70
2023/07/13 09:21:56;;;;;;;6.27;3.10;;;;;;;22.99;45.57;96416.66;5020156;28;20230;-70
2023/07/13 09:24:43;;;;;;;7.93;3.90;;;;;;;23.19;45.57;96405.91;5006338;28;20427;-70
2023/07/13 09:27:22;;;;;;;9.93;3.10;;;;;;;23.18;44.30;96415.78;5022531;28;20438;-70
2023/07/13 09:29:56;;;;;;;7.87;2.80;;;;;;;23.10;45.36;96417.47;5016821;28;20441;-70
2023/07/13 09:32:24;;;;;;;5.30;2.67;;;;;;;22.91;45.02;96416.50;5022489;28;20465;-71
2023/07/13 09:34:51;;;;;;;4.40;3.27;;;;;;;22.58;45.50;96420.47;5024942;28;20532;-71
2023/07/13 09:37:18;;;;;;;4.43;2.80;;;;;;;22.72;45.14;96409.34;5025092;28;20449;-71
2023/07/13 09:39:45;;;;;;;32.80;4.80;;;;;;;22.95;44.36;96414.41;5026563;28;20433;-71
2023/07/13 09:42:21;;;;;;;31.23;4.07;;;;;;;23.43;43.43;96408.06;5031345;28;20460;-73
2023/07/13 09:44:58;;;;;;;7.50;2.90;;;;;;;23.85;42.58;96404.97;5035441;28;20457;-71
2023/07/13 09:47:26;;;;;;;9.60;3.03;;;;;;;23.60;41.46;96417.19;5027513;28;20441;-71
2023/07/13 09:50:00;;;;;;;7.50;2.60;;;;;;;23.53;40.51;96418.75;5027714;28;20868;-70
2023/07/13 09:52:29;;;;;;;8.33;2.40;;;;;;;23.49;41.12;96414.69;5017395;28;20562;-70
2023/07/13 09:54:58;;;;;;;18.23;3.63;;;;;;;23.70;40.22;96423.34;5025950;28;20432;-71
2023/07/13 09:57:27;;;;;;;9.53;3.17;;;;;;;23.83;40.22;96420.34;5025721;28;20453;-70
2023/07/13 09:59:56;;;;;;;11.50;2.93;;;;;;;23.85;39.71;96429.09;5026293;28;20446;-71
2023/07/13 10:02:28;;;;;;;15.57;4.20;;;;;;;23.81;40.75;96423.19;5025250;28;20454;-71
2023/07/13 10:05:02;;;;;;;25.40;5.00;;;;;;;23.99;39.65;96433.09;5020220;28;20805;-70
2023/07/13 10:07:29;;;;;;;4.33;2.37;;;;;;;23.94;39.67;96417.47;5023478;28;20918;-71
2023/07/13 10:09:55;;;;;;;4.40;2.63;;;;;;;24.08;40.14;96421.47;5026103;28;20410;-70
2023/07/13 10:12:24;;;;;;;3.17;2.40;;;;;;;24.25;38.53;96426.00;5028670;28;20461;-70
2023/07/13 10:14:54;;;;;;;3.70;2.23;;;;;;;24.54;37.90;96435.72;5028832;28;20520;-71
2023/07/13 10:17:30;;;;;;;2.93;2.27;;;;;;;23.89;39.14;96425.13;5028455;28;20437;-69
2023/07/13 10:20:03;;;;;;;5.20;2.77;;;;;;;23.65;40.68;96421.09;5005299;28;20469;-70
2023/07/13 10:22:59;;;;;;;4.57;2.13;;;;;;;24.19;39.54;96415.03;5033688;28;20474;-71
2023/07/13 10:25:27;;;;;;;6.80;2.50;;;;;;;24.03;39.26;96421.94;5025031;28;20434;-71
2023/07/13 10:27:58;;;;;;;2.43;2.00;;;;;;;24.08;40.26;96425.00;5025776;28;20428;-71
2023/07/13 10:30:34;;;;;;;4.47;2.70;;;;;;;24.13;38.15;96432.59;5025061;28;20421;-71
2023/07/13 10:33:03;;;;;;;4.30;2.13;;;;;;;24.23;38.56;96411.91;5024745;28;20998;-71
2023/07/13 10:35:31;;;;;;;5.87;2.63;;;;;;;24.11;38.82;96415.81;5025408;28;20484;-71
2023/07/13 10:38:21;;;;;;;10.00;3.20;;;;;;;24.46;38.11;96428.44;5026653;28;20833;-69
2023/07/13 10:41:27;;;;;;;8.47;2.90;;;;;;;24.81;37.76;96421.38;5018261;28;20453;-70
2023/07/13 10:43:57;;;;;;;14.60;3.50;;;;;;;24.69;38.11;96420.78;4951679;28;20426;-71
2023/07/13 10:46:30;;;;;;;9.17;2.97;;;;;;;24.77;36.97;96411.09;4944656;29;20445;-71
2023/07/13 10:48:59;;;;;;;7.83;2.83;;;;;;;24.49;38.24;96414.72;4980175;28;20440;-72
2023/07/13 10:51:25;;;;;;;3.80;2.77;;;;;;;24.67;38.20;96414.72;4963362;28;21366;-71
2023/07/13 10:54:09;;;;;;;3.50;2.10;;;;;;;24.63;38.70;96418.69;4964027;28;20497;-70
2023/07/13 10:56:36;;;;;;;8.47;3.10;;;;;;;24.67;38.25;96412.03;4964737;28;20416;-71
2023/07/13 10:59:17;;;;;;;15.27;4.07;;;;;;;24.72;38.57;96412.41;4964028;28;20449;-72
2023/07/13 11:01:51;;;;;;;4.70;2.23;;;;;;;24.67;38.79;96417.41;4957940;28;20951;-70
2023/07/13 11:04:18;;;;;;;4.83;2.70;;;;;;;24.01;39.97;96410.50;4963232;28;20809;-71
2023/07/13 11:06:51;;;;;;;4.90;2.50;;;;;;;23.32;41.03;96414.47;4965862;28;20428;-70
2023/07/13 11:09:39;;;;;;;7.43;2.97;;;;;;;23.67;41.16;96400.38;4951292;28;20463;-72
2023/07/13 11:12:26;;;;;;;5.10;2.77;;;;;;;23.60;41.04;96411.84;4965427;28;20440;-72
2023/07/13 11:14:54;;;;;;;5.20;2.50;;;;;;;23.68;40.79;96410.09;4999454;28;20458;-71
2023/07/13 11:17:32;;;;;;;4.30;2.63;;;;;;;23.39;41.71;96398.69;5023766;28;20435;-72
2023/07/13 11:20:12;;;;;;;7.03;2.43;;;;;;;23.23;41.77;96402.78;5026916;28;20452;-71
2023/07/13 11:22:47;;;;;;;5.33;2.60;;;;;;;23.22;42.20;96395.78;5027524;28;20461;-70
2023/07/13 11:25:34;;;;;;;7.50;2.83;;;;;;;22.80;43.05;96396.09;5027370;28;20495;-71
2023/07/13 11:28:11;;;;;;;4.20;2.90;;;;;;;22.83;43.44;96400.31;5022299;28;20504;-71
2023/07/13 11:30:37;;;;;;;5.67;2.57;;;;;;;23.17;42.54;96402.53;5027958;28;20437;-71
2023/07/13 11:33:12;;;;;;;6.87;2.67;;;;;;;23.25;42.63;96395.47;5009389;28;20983;-70